sensor_id;sensor_type;location;lat;lon;timestamp;temperature;humidity
262;DHT22;114;48.260;10.988;2022-12-01T00:00:54;1.80;64.40
262;DHT22;114;48.260;10.988;2022-12-01T00:03:20;1.80;63.90
262;DHT22;114;48.260;10.988;2022-12-01T00:05:45;1.70;64.20
262;DHT22;114;48.260;10.988;2022-12-01T00:08:12;1.70;65.30
262;DHT22;114;48.260;10.988;2022-12-01T00:10:38;1.70;65.70
262;DHT22;114;48.260;10.988;2022-12-01T00:13:05;1.70;66.40
262;DHT22;114;48.260;10.988;2022-12-01T00:15:36;1.70;67.70
262;DHT22;114;48.260;10.988;2022-12-01T00:18:03;1.70;67.80
262;DHT22;114;48.260;10.988;2022-12-01T00:20:32;1.70;69.10
262;DHT22;114;48.260;10.988;2022-12-01T00:23:00;1.60;70.10
262;DHT22;114;48.260;10.988;2022-12-01T00:25:26;1.70;71.00
262;DHT22;114;48.260;10.988;2022-12-01T00:27:53;1.70;72.30
262;DHT22;114;48.260;10.988;2022-12-01T00:30:20;1.70;73.00
262;DHT22;114;48.260;10.988;2022-12-01T00:32:47;1.60;74.10
262;DHT22;114;48.260;10.988;2022-12-01T00:35:14;1.70;75.10
262;DHT22;114;48.260;10.988;2022-12-01T00:37:40;1.70;77.20
262;DHT22;114;48.260;10.988;2022-12-01T00:40:08;1.70;76.50
262;DHT22;114;48.260;10.988;2022-12-01T00:42:35;1.60;77.10
262;DHT22;114;48.260;10.988;2022-12-01T00:45:07;1.70;77.10
262;DHT22;114;48.260;10.988;2022-12-01T00:47:33;1.70;77.60
262;DHT22;114;48.260;10.988;2022-12-01T00:50:00;1.70;77.20
262;DHT22;114;48.260;10.988;2022-12-01T00:52:33;1.70;76.40
262;DHT22;114;48.260;10.988;2022-12-01T00:55:02;1.70;76.80
262;DHT22;114;48.260;10.988;2022-12-01T00:57:32;1.60;76.90
262;DHT22;114;48.260;10.988;2022-12-01T01:00:01;1.70;77.50
262;DHT22;114;48.260;10.988;2022-12-01T01:02:27;1.70;77.90
262;DHT22;114;48.260;10.988;2022-12-01T01:04:53;1.70;77.20
262;DHT22;114;48.260;10.988;2022-12-01T01:07:19;1.70;77.30
262;DHT22;114;48.260;10.988;2022-12-01T01:09:46;1.70;77.20
262;DHT22;114;48.260;10.988;2022-12-01T01:12:13;1.70;78.70
262;DHT22;114;48.260;10.988;2022-12-01T01:14:39;1.70;79.50
262;DHT22;114;48.260;10.988;2022-12-01T01:17:05;1.70;79.90
262;DHT22;114;48.260;10.988;2022-12-01T01:19:30;1.70;79.20
262;DHT22;114;48.260;10.988;2022-12-01T01:21:57;1.70;79.00
262;DHT22;114;48.260;10.988;2022-12-01T01:24:23;1.70;79.60
262;DHT22;114;48.260;10.988;2022-12-01T01:26:49;1.70;78.80
262;DHT22;114;48.260;10.988;2022-12-01T01:29:15;1.60;80.20
262;DHT22;114;48.260;10.988;2022-12-01T01:31:47;1.60;80.60
262;DHT22;114;48.260;10.988;2022-12-01T01:34:13;1.60;81.10
262;DHT22;114;48.260;10.988;2022-12-01T01:36:38;1.60;81.80
262;DHT22;114;48.260;10.988;2022-12-01T01:39:05;1.60;82.00
262;DHT22;114;48.260;10.988;2022-12-01T01:41:32;1.60;83.70
262;DHT22;114;48.260;10.988;2022-12-01T01:44:01;1.60;84.80
262;DHT22;114;48.260;10.988;2022-12-01T01:46:32;1.50;84.50
262;DHT22;114;48.260;10.988;2022-12-01T01:49:07;1.60;84.90
262;DHT22;114;48.260;10.988;2022-12-01T01:51:45;1.60;83.00
262;DHT22;114;48.260;10.988;2022-12-01T01:54:21;1.50;82.90
262;DHT22;114;48.260;10.988;2022-12-01T01:56:50;1.50;82.70
262;DHT22;114;48.260;10.988;2022-12-01T01:59:24;1.50;83.70
262;DHT22;114;48.260;10.988;2022-12-01T02:02:06;1.50;83.00
262;DHT22;114;48.260;10.988;2022-12-01T02:04:43;1.50;83.90
262;DHT22;114;48.260;10.988;2022-12-01T02:07:10;1.50;85.00
262;DHT22;114;48.260;10.988;2022-12-01T02:09:38;1.50;85.30
262;DHT22;114;48.260;10.988;2022-12-01T02:12:12;1.50;86.10
262;DHT22;114;48.260;10.988;2022-12-01T02:30:33;1.50;91.40
262;DHT22;114;48.260;10.988;2022-12-01T02:33:18;1.40;91.60
262;DHT22;114;48.260;10.988;2022-12-01T02:35:51;1.50;92.00
262;DHT22;114;48.260;10.988;2022-12-01T02:39:13;1.40;92.10
262;DHT22;114;48.260;10.988;2022-12-01T02:43:56;1.50;93.10
262;DHT22;114;48.260;10.988;2022-12-01T02:46:40;1.50;92.70
262;DHT22;114;48.260;10.988;2022-12-01T02:49:15;1.40;92.70
262;DHT22;114;48.260;10.988;2022-12-01T02:51:43;1.50;93.20
262;DHT22;114;48.260;10.988;2022-12-01T02:54:12;1.50;93.20
262;DHT22;114;48.260;10.988;2022-12-01T02:56:39;1.50;93.20
262;DHT22;114;48.260;10.988;2022-12-01T02:59:13;1.50;93.30
262;DHT22;114;48.260;10.988;2022-12-01T03:10:47;1.60;93.30
262;DHT22;114;48.260;10.988;2022-12-01T03:16:36;1.60;93.40
262;DHT22;114;48.260;10.988;2022-12-01T03:21:45;1.70;93.50
262;DHT22;114;48.260;10.988;2022-12-01T03:24:18;1.80;92.80
262;DHT22;114;48.260;10.988;2022-12-01T03:26:48;1.80;92.70
262;DHT22;114;48.260;10.988;2022-12-01T03:32:12;1.80;92.00
262;DHT22;114;48.260;10.988;2022-12-01T03:39:59;1.80;91.80
262;DHT22;114;48.260;10.988;2022-12-01T03:42:39;1.80;91.80
262;DHT22;114;48.260;10.988;2022-12-01T03:45:14;1.80;91.50
262;DHT22;114;48.260;10.988;2022-12-01T03:47:43;1.80;91.10
262;DHT22;114;48.260;10.988;2022-12-01T03:50:12;1.80;90.90
262;DHT22;114;48.260;10.988;2022-12-01T03:55:26;1.80;91.10
262;DHT22;114;48.260;10.988;2022-12-01T03:58:01;1.90;91.60
262;DHT22;114;48.260;10.988;2022-12-01T04:00:34;1.90;91.40
262;DHT22;114;48.260;10.988;2022-12-01T04:03:02;1.90;91.30
262;DHT22;114;48.260;10.988;2022-12-01T04:05:29;1.90;91.40
262;DHT22;114;48.260;10.988;2022-12-01T04:07:55;1.90;91.40
262;DHT22;114;48.260;10.988;2022-12-01T04:10:21;1.90;91.80
262;DHT22;114;48.260;10.988;2022-12-01T04:12:49;1.90;92.40
262;DHT22;114;48.260;10.988;2022-12-01T04:15:15;2.00;92.50
262;DHT22;114;48.260;10.988;2022-12-01T04:17:42;2.00;92.50
262;DHT22;114;48.260;10.988;2022-12-01T04:20:11;2.00;92.80
262;DHT22;114;48.260;10.988;2022-12-01T04:22:37;2.00;92.80
262;DHT22;114;48.260;10.988;2022-12-01T04:25:04;2.00;93.30
262;DHT22;114;48.260;10.988;2022-12-01T04:27:36;2.10;93.40
262;DHT22;114;48.260;10.988;2022-12-01T04:30:03;2.10;92.60
262;DHT22;114;48.260;10.988;2022-12-01T04:32:30;2.10;92.80
262;DHT22;114;48.260;10.988;2022-12-01T04:34:56;2.10;92.70
262;DHT22;114;48.260;10.988;2022-12-01T04:37:22;2.10;93.20
262;DHT22;114;48.260;10.988;2022-12-01T04:39:49;2.10;92.80
262;DHT22;114;48.260;10.988;2022-12-01T04:42:19;2.10;92.90
262;DHT22;114;48.260;10.988;2022-12-01T04:44:47;2.10;92.70
262;DHT22;114;48.260;10.988;2022-12-01T04:47:15;2.10;92.60
262;DHT22;114;48.260;10.988;2022-12-01T04:49:41;2.10;92.70
262;DHT22;114;48.260;10.988;2022-12-01T04:52:07;2.10;92.90
262;DHT22;114;48.260;10.988;2022-12-01T04:54:42;2.20;92.90
262;DHT22;114;48.260;10.988;2022-12-01T04:57:08;2.10;92.60
262;DHT22;114;48.260;10.988;2022-12-01T04:59:34;2.20;92.90
262;DHT22;114;48.260;10.988;2022-12-01T05:02:00;2.20;92.50
262;DHT22;114;48.260;10.988;2022-12-01T05:04:28;2.20;92.50
262;DHT22;114;48.260;10.988;2022-12-01T05:06:55;2.10;91.90
262;DHT22;114;48.260;10.988;2022-12-01T05:09:21;2.20;92.00
262;DHT22;114;48.260;10.988;2022-12-01T05:11:47;2.20;92.00
262;DHT22;114;48.260;10.988;2022-12-01T05:14:12;2.20;92.10
262;DHT22;114;48.260;10.988;2022-12-01T05:16:38;2.30;92.00
262;DHT22;114;48.260;10.988;2022-12-01T05:19:05;2.20;91.90
262;DHT22;114;48.260;10.988;2022-12-01T05:21:50;2.20;91.90
262;DHT22;114;48.260;10.988;2022-12-01T05:24:16;2.30;91.90
262;DHT22;114;48.260;10.988;2022-12-01T05:26:54;2.30;91.80
262;DHT22;114;48.260;10.988;2022-12-01T05:29:21;2.30;91.10
262;DHT22;114;48.260;10.988;2022-12-01T05:31:46;2.30;90.70
262;DHT22;114;48.260;10.988;2022-12-01T05:34:12;2.20;90.70
262;DHT22;114;48.260;10.988;2022-12-01T05:36:38;2.20;90.40
262;DHT22;114;48.260;10.988;2022-12-01T05:39:05;2.20;90.40
262;DHT22;114;48.260;10.988;2022-12-01T05:41:32;2.20;91.20
262;DHT22;114;48.260;10.988;2022-12-01T05:44:09;2.20;91.10
262;DHT22;114;48.260;10.988;2022-12-01T05:46:36;2.20;91.40
262;DHT22;114;48.260;10.988;2022-12-01T05:49:02;2.20;91.20
262;DHT22;114;48.260;10.988;2022-12-01T05:51:28;2.30;91.40
262;DHT22;114;48.260;10.988;2022-12-01T05:53:54;2.30;91.30
262;DHT22;114;48.260;10.988;2022-12-01T05:56:20;2.20;90.50
262;DHT22;114;48.260;10.988;2022-12-01T05:58:46;2.20;90.70
262;DHT22;114;48.260;10.988;2022-12-01T06:01:12;2.20;90.60
262;DHT22;114;48.260;10.988;2022-12-01T06:03:37;2.20;91.10
262;DHT22;114;48.260;10.988;2022-12-01T06:06:03;2.20;91.00
262;DHT22;114;48.260;10.988;2022-12-01T06:08:29;2.20;91.30
262;DHT22;114;48.260;10.988;2022-12-01T06:10:55;2.20;90.70
262;DHT22;114;48.260;10.988;2022-12-01T06:13:20;2.20;91.10
262;DHT22;114;48.260;10.988;2022-12-01T06:16:02;2.20;91.00
262;DHT22;114;48.260;10.988;2022-12-01T06:18:33;2.20;91.00
262;DHT22;114;48.260;10.988;2022-12-01T06:21:01;2.20;91.10
262;DHT22;114;48.260;10.988;2022-12-01T06:23:32;2.20;91.20
262;DHT22;114;48.260;10.988;2022-12-01T06:26:06;2.20;91.20
262;DHT22;114;48.260;10.988;2022-12-01T06:28:32;2.20;91.40
262;DHT22;114;48.260;10.988;2022-12-01T06:30:58;2.20;91.40
262;DHT22;114;48.260;10.988;2022-12-01T06:33:23;2.20;91.50
262;DHT22;114;48.260;10.988;2022-12-01T06:36:00;2.20;91.20
262;DHT22;114;48.260;10.988;2022-12-01T06:38:32;2.20;91.30
262;DHT22;114;48.260;10.988;2022-12-01T06:41:00;2.20;91.40
262;DHT22;114;48.260;10.988;2022-12-01T06:43:44;2.30;92.00
262;DHT22;114;48.260;10.988;2022-12-01T06:46:10;2.40;92.40
262;DHT22;114;48.260;10.988;2022-12-01T06:48:39;2.30;92.20
262;DHT22;114;48.260;10.988;2022-12-01T06:51:07;2.30;92.20
262;DHT22;114;48.260;10.988;2022-12-01T06:53:33;2.30;92.00
262;DHT22;114;48.260;10.988;2022-12-01T06:56:03;2.30;92.00
262;DHT22;114;48.260;10.988;2022-12-01T06:58:29;2.30;91.80
262;DHT22;114;48.260;10.988;2022-12-01T07:00:55;2.20;91.30
262;DHT22;114;48.260;10.988;2022-12-01T07:03:23;2.20;91.30
262;DHT22;114;48.260;10.988;2022-12-01T07:05:59;2.20;91.10
262;DHT22;114;48.260;10.988;2022-12-01T07:08:25;2.20;91.00
262;DHT22;114;48.260;10.988;2022-12-01T07:10:58;2.20;91.00
262;DHT22;114;48.260;10.988;2022-12-01T07:13:24;2.20;91.30
262;DHT22;114;48.260;10.988;2022-12-01T07:15:51;2.20;90.90
262;DHT22;114;48.260;10.988;2022-12-01T07:18:17;2.20;91.00
262;DHT22;114;48.260;10.988;2022-12-01T07:20:43;2.30;91.50
262;DHT22;114;48.260;10.988;2022-12-01T07:23:08;2.30;90.90
262;DHT22;114;48.260;10.988;2022-12-01T07:25:37;2.40;91.10
262;DHT22;114;48.260;10.988;2022-12-01T07:28:03;2.40;90.70
262;DHT22;114;48.260;10.988;2022-12-01T07:30:30;2.50;90.20
262;DHT22;114;48.260;10.988;2022-12-01T07:32:55;2.60;88.90
262;DHT22;114;48.260;10.988;2022-12-01T07:35:22;2.70;88.90
262;DHT22;114;48.260;10.988;2022-12-01T07:37:54;2.60;85.20
262;DHT22;114;48.260;10.988;2022-12-01T07:40:21;2.70;86.50
262;DHT22;114;48.260;10.988;2022-12-01T07:42:47;2.70;84.30
262;DHT22;114;48.260;10.988;2022-12-01T07:45:12;2.80;82.10
262;DHT22;114;48.260;10.988;2022-12-01T07:47:39;2.70;79.20
262;DHT22;114;48.260;10.988;2022-12-01T07:50:05;2.80;77.60
262;DHT22;114;48.260;10.988;2022-12-01T07:52:31;2.80;76.60
262;DHT22;114;48.260;10.988;2022-12-01T07:54:59;2.80;75.60
262;DHT22;114;48.260;10.988;2022-12-01T07:57:26;2.90;74.40
262;DHT22;114;48.260;10.988;2022-12-01T07:59:51;2.90;71.60
262;DHT22;114;48.260;10.988;2022-12-01T08:02:19;2.80;70.40
262;DHT22;114;48.260;10.988;2022-12-01T08:04:45;2.90;71.20
262;DHT22;114;48.260;10.988;2022-12-01T08:07:11;2.90;70.60
262;DHT22;114;48.260;10.988;2022-12-01T08:09:37;2.90;70.50
262;DHT22;114;48.260;10.988;2022-12-01T08:12:03;2.90;69.10
262;DHT22;114;48.260;10.988;2022-12-01T08:14:29;2.70;68.40
262;DHT22;114;48.260;10.988;2022-12-01T08:16:57;2.80;70.90
262;DHT22;114;48.260;10.988;2022-12-01T08:19:24;2.80;71.90
262;DHT22;114;48.260;10.988;2022-12-01T08:21:52;2.80;73.00
262;DHT22;114;48.260;10.988;2022-12-01T08:24:17;2.90;73.60
262;DHT22;114;48.260;10.988;2022-12-01T08:26:43;3.00;71.80
262;DHT22;114;48.260;10.988;2022-12-01T08:29:09;3.10;72.20
262;DHT22;114;48.260;10.988;2022-12-01T08:31:34;3.10;70.30
262;DHT22;114;48.260;10.988;2022-12-01T08:34:04;3.10;68.50
262;DHT22;114;48.260;10.988;2022-12-01T08:36:32;3.10;65.80
262;DHT22;114;48.260;10.988;2022-12-01T08:38:58;3.10;64.00
262;DHT22;114;48.260;10.988;2022-12-01T08:41:25;3.00;64.30
262;DHT22;114;48.260;10.988;2022-12-01T08:43:51;3.00;64.40
262;DHT22;114;48.260;10.988;2022-12-01T08:46:18;3.00;64.40
262;DHT22;114;48.260;10.988;2022-12-01T08:48:45;3.10;65.70
262;DHT22;114;48.260;10.988;2022-12-01T08:51:14;3.30;64.70
262;DHT22;114;48.260;10.988;2022-12-01T08:53:42;3.40;62.80
262;DHT22;114;48.260;10.988;2022-12-01T08:56:22;3.40;59.40
262;DHT22;114;48.260;10.988;2022-12-01T08:58:49;3.50;57.50
262;DHT22;114;48.260;10.988;2022-12-01T09:01:17;3.50;60.00
262;DHT22;114;48.260;10.988;2022-12-01T09:03:43;3.60;56.20
262;DHT22;114;48.260;10.988;2022-12-01T09:08:37;3.60;51.90
262;DHT22;114;48.260;10.988;2022-12-01T09:11:06;3.70;51.00
262;DHT22;114;48.260;10.988;2022-12-01T09:13:34;3.70;50.00
262;DHT22;114;48.260;10.988;2022-12-01T09:16:05;3.60;51.00
262;DHT22;114;48.260;10.988;2022-12-01T09:18:32;3.70;49.60
262;DHT22;114;48.260;10.988;2022-12-01T09:20:59;3.80;48.70
262;DHT22;114;48.260;10.988;2022-12-01T09:23:26;3.70;47.50
262;DHT22;114;48.260;10.988;2022-12-01T09:25:52;3.90;46.80
262;DHT22;114;48.260;10.988;2022-12-01T09:28:18;3.80;48.00
262;DHT22;114;48.260;10.988;2022-12-01T09:30:45;3.80;46.80
262;DHT22;114;48.260;10.988;2022-12-01T09:33:13;3.90;43.60
262;DHT22;114;48.260;10.988;2022-12-01T09:35:39;3.80;43.40
262;DHT22;114;48.260;10.988;2022-12-01T09:38:05;3.70;42.50
262;DHT22;114;48.260;10.988;2022-12-01T09:40:36;3.70;42.80
262;DHT22;114;48.260;10.988;2022-12-01T09:43:10;3.60;44.00
262;DHT22;114;48.260;10.988;2022-12-01T09:45:44;3.60;46.60
262;DHT22;114;48.260;10.988;2022-12-01T09:48:35;3.50;46.40
262;DHT22;114;48.260;10.988;2022-12-01T09:51:18;3.60;47.40
262;DHT22;114;48.260;10.988;2022-12-01T09:53:48;3.50;46.50
262;DHT22;114;48.260;10.988;2022-12-01T09:56:28;3.50;47.20
262;DHT22;114;48.260;10.988;2022-12-01T09:59:00;3.70;47.10
262;DHT22;114;48.260;10.988;2022-12-01T10:01:38;3.70;43.00
262;DHT22;114;48.260;10.988;2022-12-01T10:04:16;3.70;44.00
262;DHT22;114;48.260;10.988;2022-12-01T10:09:39;3.70;46.60
262;DHT22;114;48.260;10.988;2022-12-01T10:12:19;3.60;44.60
262;DHT22;114;48.260;10.988;2022-12-01T10:14:47;3.60;44.70
262;DHT22;114;48.260;10.988;2022-12-01T10:17:22;3.50;45.70
262;DHT22;114;48.260;10.988;2022-12-01T10:25:50;3.40;44.80
262;DHT22;114;48.260;10.988;2022-12-01T10:31:42;3.60;42.80
262;DHT22;114;48.260;10.988;2022-12-01T10:36:46;3.50;41.50
262;DHT22;114;48.260;10.988;2022-12-01T10:41:50;3.60;41.80
262;DHT22;114;48.260;10.988;2022-12-01T10:44:17;3.70;40.50
262;DHT22;114;48.260;10.988;2022-12-01T10:46:51;3.80;38.70
262;DHT22;114;48.260;10.988;2022-12-01T10:49:19;3.70;37.10
262;DHT22;114;48.260;10.988;2022-12-01T10:51:58;3.80;38.60
262;DHT22;114;48.260;10.988;2022-12-01T10:54:39;3.80;39.50
262;DHT22;114;48.260;10.988;2022-12-01T10:57:06;3.90;39.10
262;DHT22;114;48.260;10.988;2022-12-01T10:59:59;3.80;37.70
262;DHT22;114;48.260;10.988;2022-12-01T11:02:28;3.70;38.60
262;DHT22;114;48.260;10.988;2022-12-01T11:05:02;3.70;38.80
262;DHT22;114;48.260;10.988;2022-12-01T11:07:43;3.70;37.30
262;DHT22;114;48.260;10.988;2022-12-01T11:10:33;3.70;37.70
262;DHT22;114;48.260;10.988;2022-12-01T11:13:23;3.70;38.00
262;DHT22;114;48.260;10.988;2022-12-01T11:16:00;3.70;38.30
262;DHT22;114;48.260;10.988;2022-12-01T11:18:32;3.60;41.80
262;DHT22;114;48.260;10.988;2022-12-01T11:21:26;3.60;39.90
262;DHT22;114;48.260;10.988;2022-12-01T11:23:55;3.60;40.00
262;DHT22;114;48.260;10.988;2022-12-01T11:26:42;3.50;38.70
262;DHT22;114;48.260;10.988;2022-12-01T11:29:34;3.50;38.40
262;DHT22;114;48.260;10.988;2022-12-01T11:32:31;3.50;39.00
262;DHT22;114;48.260;10.988;2022-12-01T11:35:16;3.50;40.10
262;DHT22;114;48.260;10.988;2022-12-01T11:37:54;3.40;40.30
262;DHT22;114;48.260;10.988;2022-12-01T11:40:27;3.50;39.10
262;DHT22;114;48.260;10.988;2022-12-01T11:42:59;3.50;39.50
262;DHT22;114;48.260;10.988;2022-12-01T11:45:40;3.60;38.60
262;DHT22;114;48.260;10.988;2022-12-01T11:48:23;3.60;38.70
262;DHT22;114;48.260;10.988;2022-12-01T11:51:31;3.70;35.20
262;DHT22;114;48.260;10.988;2022-12-01T11:54:22;3.80;32.30
262;DHT22;114;48.260;10.988;2022-12-01T11:56:52;4.00;32.50
262;DHT22;114;48.260;10.988;2022-12-01T11:59:28;3.90;27.70
262;DHT22;114;48.260;10.988;2022-12-01T12:07:46;4.00;26.40
262;DHT22;114;48.260;10.988;2022-12-01T12:15:53;3.90;26.80
262;DHT22;114;48.260;10.988;2022-12-01T12:27:19;3.70;29.00
262;DHT22;114;48.260;10.988;2022-12-01T12:29:59;3.60;28.80
262;DHT22;114;48.260;10.988;2022-12-01T12:37:58;3.70;30.80
262;DHT22;114;48.260;10.988;2022-12-01T12:41:04;3.70;30.30
262;DHT22;114;48.260;10.988;2022-12-01T12:52:22;3.50;32.60
262;DHT22;114;48.260;10.988;2022-12-01T12:55:03;3.50;33.20
262;DHT22;114;48.260;10.988;2022-12-01T12:57:38;3.60;34.40
262;DHT22;114;48.260;10.988;2022-12-01T13:00:13;3.60;35.10
262;DHT22;114;48.260;10.988;2022-12-01T13:02:45;3.60;34.10
262;DHT22;114;48.260;10.988;2022-12-01T13:08:00;3.60;34.30
262;DHT22;114;48.260;10.988;2022-12-01T13:10:38;3.60;34.70
262;DHT22;114;48.260;10.988;2022-12-01T13:15:51;3.70;33.80
262;DHT22;114;48.260;10.988;2022-12-01T13:20:50;3.70;33.70
262;DHT22;114;48.260;10.988;2022-12-01T13:23:17;3.70;34.60
262;DHT22;114;48.260;10.988;2022-12-01T13:25:49;3.60;34.30
262;DHT22;114;48.260;10.988;2022-12-01T13:28:41;3.50;34.90
262;DHT22;114;48.260;10.988;2022-12-01T13:31:11;3.50;36.80
262;DHT22;114;48.260;10.988;2022-12-01T13:33:52;3.50;38.10
262;DHT22;114;48.260;10.988;2022-12-01T13:36:18;3.50;38.50
262;DHT22;114;48.260;10.988;2022-12-01T13:44:05;3.50;40.50
262;DHT22;114;48.260;10.988;2022-12-01T13:49:46;3.50;40.00
262;DHT22;114;48.260;10.988;2022-12-01T13:55:24;3.40;41.70
262;DHT22;114;48.260;10.988;2022-12-01T14:00:29;3.40;41.60
262;DHT22;114;48.260;10.988;2022-12-01T14:08:31;3.50;39.00
262;DHT22;114;48.260;10.988;2022-12-01T14:14:02;3.40;40.10
262;DHT22;114;48.260;10.988;2022-12-01T14:16:46;3.40;41.60
262;DHT22;114;48.260;10.988;2022-12-01T14:19:36;3.40;42.40
262;DHT22;114;48.260;10.988;2022-12-01T14:22:05;3.40;43.10
262;DHT22;114;48.260;10.988;2022-12-01T14:24:41;3.50;43.10
262;DHT22;114;48.260;10.988;2022-12-01T14:27:08;3.40;43.00
262;DHT22;114;48.260;10.988;2022-12-01T14:29:42;3.40;43.60
262;DHT22;114;48.260;10.988;2022-12-01T14:34:34;3.40;43.20
262;DHT22;114;48.260;10.988;2022-12-01T14:40:02;3.40;43.10
262;DHT22;114;48.260;10.988;2022-12-01T14:42:36;3.40;43.80
262;DHT22;114;48.260;10.988;2022-12-01T14:48:33;3.40;44.20
262;DHT22;114;48.260;10.988;2022-12-01T14:51:14;3.40;46.00
262;DHT22;114;48.260;10.988;2022-12-01T14:53:44;3.40;46.90
262;DHT22;114;48.260;10.988;2022-12-01T14:56:13;3.30;47.30
262;DHT22;114;48.260;10.988;2022-12-01T14:58:55;3.30;49.00
262;DHT22;114;48.260;10.988;2022-12-01T15:01:22;3.30;50.30
262;DHT22;114;48.260;10.988;2022-12-01T15:03:51;3.20;52.40
262;DHT22;114;48.260;10.988;2022-12-01T15:06:20;3.20;54.40
262;DHT22;114;48.260;10.988;2022-12-01T15:09:11;3.20;55.40
262;DHT22;114;48.260;10.988;2022-12-01T15:11:59;3.20;57.70
262;DHT22;114;48.260;10.988;2022-12-01T15:14:34;3.20;59.60
262;DHT22;114;48.260;10.988;2022-12-01T15:17:06;3.20;60.00
262;DHT22;114;48.260;10.988;2022-12-01T15:19:38;3.20;61.40
262;DHT22;114;48.260;10.988;2022-12-01T15:22:14;3.20;61.20
262;DHT22;114;48.260;10.988;2022-12-01T15:24:41;3.10;61.60
262;DHT22;114;48.260;10.988;2022-12-01T15:27:27;3.10;62.40
262;DHT22;114;48.260;10.988;2022-12-01T15:29:54;3.20;63.50
262;DHT22;114;48.260;10.988;2022-12-01T15:32:22;3.10;64.50
262;DHT22;114;48.260;10.988;2022-12-01T15:34:51;3.10;65.30
262;DHT22;114;48.260;10.988;2022-12-01T15:37:21;3.20;67.10
262;DHT22;114;48.260;10.988;2022-12-01T15:40:01;3.20;68.00
262;DHT22;114;48.260;10.988;2022-12-01T15:42:32;3.10;68.40
262;DHT22;114;48.260;10.988;2022-12-01T15:45:00;3.10;70.00
262;DHT22;114;48.260;10.988;2022-12-01T15:47:35;3.00;71.40
262;DHT22;114;48.260;10.988;2022-12-01T15:50:30;3.10;75.60
262;DHT22;114;48.260;10.988;2022-12-01T15:53:00;3.10;75.70
262;DHT22;114;48.260;10.988;2022-12-01T15:55:30;3.10;76.40
262;DHT22;114;48.260;10.988;2022-12-01T15:57:58;3.10;78.00
262;DHT22;114;48.260;10.988;2022-12-01T16:00:24;3.20;79.70
262;DHT22;114;48.260;10.988;2022-12-01T16:02:55;3.20;77.10
262;DHT22;114;48.260;10.988;2022-12-01T16:05:24;3.20;78.50
262;DHT22;114;48.260;10.988;2022-12-01T16:07:53;3.20;78.10
262;DHT22;114;48.260;10.988;2022-12-01T16:10:35;3.10;78.70
262;DHT22;114;48.260;10.988;2022-12-01T16:13:37;3.00;78.50
262;DHT22;114;48.260;10.988;2022-12-01T16:18:57;3.00;82.50
262;DHT22;114;48.260;10.988;2022-12-01T16:21:24;3.00;82.90
262;DHT22;114;48.260;10.988;2022-12-01T16:24:01;2.90;83.80
262;DHT22;114;48.260;10.988;2022-12-01T16:26:28;2.80;84.80
262;DHT22;114;48.260;10.988;2022-12-01T16:28:54;2.90;86.60
262;DHT22;114;48.260;10.988;2022-12-01T16:31:21;2.90;87.40
262;DHT22;114;48.260;10.988;2022-12-01T16:33:48;2.90;89.10
262;DHT22;114;48.260;10.988;2022-12-01T16:36:24;2.80;89.00
262;DHT22;114;48.260;10.988;2022-12-01T16:38:50;2.80;89.60
262;DHT22;114;48.260;10.988;2022-12-01T16:41:23;2.80;90.50
262;DHT22;114;48.260;10.988;2022-12-01T16:43:51;2.90;91.40
262;DHT22;114;48.260;10.988;2022-12-01T16:46:17;2.90;91.00
262;DHT22;114;48.260;10.988;2022-12-01T16:48:43;2.90;91.10
262;DHT22;114;48.260;10.988;2022-12-01T16:51:12;2.90;90.90
262;DHT22;114;48.260;10.988;2022-12-01T16:53:38;2.80;91.00
262;DHT22;114;48.260;10.988;2022-12-01T16:56:04;2.80;90.90
262;DHT22;114;48.260;10.988;2022-12-01T16:58:31;2.80;91.80
262;DHT22;114;48.260;10.988;2022-12-01T17:00:57;2.90;91.50
262;DHT22;114;48.260;10.988;2022-12-01T17:03:25;2.80;91.20
262;DHT22;114;48.260;10.988;2022-12-01T17:05:53;2.90;92.20
262;DHT22;114;48.260;10.988;2022-12-01T17:08:19;2.90;91.30
262;DHT22;114;48.260;10.988;2022-12-01T17:10:47;3.00;91.50
262;DHT22;114;48.260;10.988;2022-12-01T17:13:15;2.90;91.50
262;DHT22;114;48.260;10.988;2022-12-01T17:15:42;3.00;92.20
262;DHT22;114;48.260;10.988;2022-12-01T17:18:08;3.00;90.80
262;DHT22;114;48.260;10.988;2022-12-01T17:20:37;2.90;91.10
262;DHT22;114;48.260;10.988;2022-12-01T17:23:03;2.90;90.40
262;DHT22;114;48.260;10.988;2022-12-01T17:25:31;2.90;90.90
262;DHT22;114;48.260;10.988;2022-12-01T17:27:58;2.90;91.30
262;DHT22;114;48.260;10.988;2022-12-01T17:30:24;2.90;91.00
262;DHT22;114;48.260;10.988;2022-12-01T17:32:52;3.00;90.60
262;DHT22;114;48.260;10.988;2022-12-01T17:35:18;3.00;89.20
262;DHT22;114;48.260;10.988;2022-12-01T17:37:43;3.00;88.20
262;DHT22;114;48.260;10.988;2022-12-01T17:40:11;2.90;87.30
262;DHT22;114;48.260;10.988;2022-12-01T17:42:41;2.90;87.70
262;DHT22;114;48.260;10.988;2022-12-01T17:45:07;2.90;88.60
262;DHT22;114;48.260;10.988;2022-12-01T17:47:34;2.90;89.70
262;DHT22;114;48.260;10.988;2022-12-01T17:50:00;3.00;90.10
262;DHT22;114;48.260;10.988;2022-12-01T17:52:26;3.00;90.30
262;DHT22;114;48.260;10.988;2022-12-01T17:54:52;3.00;90.30
262;DHT22;114;48.260;10.988;2022-12-01T17:57:23;2.90;90.00
262;DHT22;114;48.260;10.988;2022-12-01T17:59:49;3.00;90.40
262;DHT22;114;48.260;10.988;2022-12-01T18:02:14;3.00;90.40
262;DHT22;114;48.260;10.988;2022-12-01T18:04:40;3.00;90.10
262;DHT22;114;48.260;10.988;2022-12-01T18:07:06;3.00;89.90
262;DHT22;114;48.260;10.988;2022-12-01T18:09:32;3.00;90.10
262;DHT22;114;48.260;10.988;2022-12-01T18:11:58;3.00;90.40
262;DHT22;114;48.260;10.988;2022-12-01T18:14:24;3.00;90.80
262;DHT22;114;48.260;10.988;2022-12-01T18:16:51;3.00;91.00
262;DHT22;114;48.260;10.988;2022-12-01T18:19:18;3.00;91.00
262;DHT22;114;48.260;10.988;2022-12-01T18:21:44;2.90;91.10
262;DHT22;114;48.260;10.988;2022-12-01T18:24:10;2.90;91.30
262;DHT22;114;48.260;10.988;2022-12-01T18:26:38;2.90;91.70
262;DHT22;114;48.260;10.988;2022-12-01T18:29:15;3.00;92.00
262;DHT22;114;48.260;10.988;2022-12-01T18:31:43;3.00;92.00
262;DHT22;114;48.260;10.988;2022-12-01T18:34:10;3.00;92.30
262;DHT22;114;48.260;10.988;2022-12-01T18:36:42;3.00;92.50
262;DHT22;114;48.260;10.988;2022-12-01T18:39:09;3.00;92.80
262;DHT22;114;48.260;10.988;2022-12-01T18:41:36;3.00;92.90
262;DHT22;114;48.260;10.988;2022-12-01T18:44:03;3.00;93.20
262;DHT22;114;48.260;10.988;2022-12-01T18:46:29;3.00;93.50
262;DHT22;114;48.260;10.988;2022-12-01T18:48:58;3.00;93.80
262;DHT22;114;48.260;10.988;2022-12-01T18:51:31;3.00;94.10
262;DHT22;114;48.260;10.988;2022-12-01T18:53:59;2.90;94.20
262;DHT22;114;48.260;10.988;2022-12-01T18:56:26;3.00;94.40
262;DHT22;114;48.260;10.988;2022-12-01T18:58:56;2.90;93.90
262;DHT22;114;48.260;10.988;2022-12-01T19:01:29;2.90;94.10
262;DHT22;114;48.260;10.988;2022-12-01T19:03:57;2.90;94.60
262;DHT22;114;48.260;10.988;2022-12-01T19:06:29;2.90;94.60
262;DHT22;114;48.260;10.988;2022-12-01T19:08:58;2.90;94.70
262;DHT22;114;48.260;10.988;2022-12-01T19:11:25;2.90;94.60
262;DHT22;114;48.260;10.988;2022-12-01T19:13:57;2.90;94.80
262;DHT22;114;48.260;10.988;2022-12-01T19:16:27;2.90;94.90